createdAt,value
2017-07-21T00:00:34.369Z,20.24
2017-07-21T00:01:44.639Z,20.21
2017-07-21T00:02:54.931Z,20.29
2017-07-21T00:04:05.210Z,20.18
2017-07-21T00:05:15.752Z,20.27
2017-07-21T00:06:25.726Z,20.19
2017-07-21T00:07:35.703Z,20.26
2017-07-21T00:08:45.680Z,20.19
2017-07-21T00:09:55.959Z,20.1
2017-07-21T00:11:06.173Z,20.17
2017-07-21T00:12:16.143Z,20.11
2017-07-21T00:13:26.413Z,20.22
2017-07-21T00:14:36.391Z,20
2017-07-21T00:15:46.056Z,19.96
2017-07-21T00:16:56.283Z,19.87
2017-07-21T00:18:06.601Z,19.78
2017-07-21T00:19:16.582Z,19.75
2017-07-21T00:20:26.895Z,19.74
2017-07-21T00:21:37.179Z,19.75
2017-07-21T00:22:47.420Z,19.66
2017-07-21T00:23:57.709Z,19.64
2017-07-21T00:25:07.987Z,19.62
2017-07-21T00:26:18.253Z,19.55
2017-07-21T00:27:28.226Z,19.47
2017-07-21T00:28:38.779Z,19.56
2017-07-21T00:29:49.067Z,19.52
2017-07-21T00:30:59.334Z,19.49
2017-07-21T00:32:09.293Z,19.53
2017-07-21T00:33:19.284Z,19.44
2017-07-21T00:34:29.809Z,19.39
2017-07-21T00:35:40.085Z,19.35
2017-07-21T00:36:50.374Z,19.39
2017-07-21T00:38:00.013Z,19.55
2017-07-21T00:39:09.991Z,19.47
2017-07-21T00:40:20.526Z,19.39
2017-07-21T00:41:30.494Z,19.52
2017-07-21T00:42:40.774Z,19.45
2017-07-21T00:43:51.054Z,19.44
2017-07-21T00:45:01.039Z,19.41
2017-07-21T00:46:11.565Z,19.47
2017-07-21T00:47:21.541Z,19.49
2017-07-21T00:48:31.515Z,19.41
2017-07-21T00:49:41.472Z,19.57
2017-07-21T00:50:51.438Z,19.59
2017-07-21T00:52:01.955Z,19.53
2017-07-21T00:53:11.925Z,19.53
2017-07-21T00:54:22.203Z,19.55
2017-07-21T00:55:32.495Z,19.55
2017-07-21T00:56:42.782Z,19.56
2017-07-21T00:57:53.000Z,19.63
2017-07-21T00:59:03.387Z,19.47
2017-07-21T01:00:13.688Z,19.59
2017-07-21T01:01:23.981Z,19.45
2017-07-21T01:02:34.264Z,19.55
2017-07-21T01:03:44.798Z,19.49
2017-07-21T01:04:54.817Z,19.55
2017-07-21T01:06:05.099Z,19.47
2017-07-21T01:07:15.373Z,19.41
2017-07-21T01:08:25.657Z,19.47
2017-07-21T01:09:36.202Z,19.45
2017-07-21T01:10:46.194Z,19.48
2017-07-21T01:11:56.157Z,19.41
2017-07-21T01:13:06.432Z,19.48
2017-07-21T01:14:16.730Z,19.45
2017-07-21T01:15:27.255Z,19.39
2017-07-21T01:16:37.530Z,19.41
2017-07-21T01:17:47.806Z,19.44
2017-07-21T01:18:58.085Z,19.37
2017-07-21T01:20:08.371Z,19.41
2017-07-21T01:21:18.570Z,19.35
2017-07-21T01:22:28.232Z,19.3
2017-07-21T01:23:38.506Z,19.3
2017-07-21T01:24:48.781Z,19.3
2017-07-21T01:25:58.746Z,19.26
2017-07-21T01:27:09.292Z,19.3
2017-07-21T01:28:19.594Z,19.34
2017-07-21T01:29:29.861Z,19.24
2017-07-21T01:30:40.135Z,19.24
2017-07-21T01:31:50.125Z,19.29
2017-07-21T01:33:00.661Z,19.27
2017-07-21T01:34:10.943Z,19.27
2017-07-21T01:35:20.905Z,19.27
2017-07-21T01:36:31.181Z,19.27
2017-07-21T01:37:41.437Z,19.3
2017-07-21T01:38:51.654Z,19.2
2017-07-21T01:40:01.934Z,19.22
2017-07-21T01:41:11.912Z,19.15
2017-07-21T01:42:22.185Z,19.2
2017-07-21T01:43:31.844Z,19.22
2017-07-21T01:44:42.360Z,19.22
2017-07-21T01:45:52.324Z,19.19
2017-07-21T01:47:02.599Z,19.15
2017-07-21T01:48:12.884Z,19.17
2017-07-21T01:49:22.851Z,19.2
2017-07-21T01:50:33.083Z,19.12
2017-07-21T01:51:43.365Z,19.16
2017-07-21T01:52:53.331Z,19.08
2017-07-21T01:54:03.289Z,19.16
2017-07-21T01:55:13.264Z,19.12
2017-07-21T01:56:23.514Z,19.08
2017-07-21T01:57:33.791Z,19.08
2017-07-21T01:58:44.064Z,19.11
2017-07-21T01:59:53.718Z,19.11
2017-07-21T02:01:03.066Z,19.08
2017-07-21T02:02:13.589Z,19.08
2017-07-21T02:03:23.868Z,19.08
2017-07-21T02:04:33.846Z,19
2017-07-21T02:05:44.119Z,19.07
2017-07-21T02:06:54.379Z,19.09
2017-07-21T02:08:04.590Z,19
2017-07-21T02:09:14.567Z,19.04
2017-07-21T02:10:24.850Z,19.07
2017-07-21T02:11:34.819Z,19.09
2017-07-21T02:12:45.113Z,19.07
2017-07-21T02:13:55.329Z,19.11
2017-07-21T02:15:05.603Z,19.05
2017-07-21T02:16:15.574Z,19.11
2017-07-21T02:17:25.862Z,19.07
2017-07-21T02:18:36.142Z,19.19
2017-07-21T02:19:46.657Z,19.05
2017-07-21T02:20:56.620Z,19.19
2017-07-21T02:22:06.591Z,19.05
2017-07-21T02:23:16.262Z,19.08
2017-07-21T02:24:26.228Z,19.07
2017-07-21T02:25:36.446Z,19.04
2017-07-21T02:26:46.718Z,19.07
2017-07-21T02:27:57.003Z,19.19
2017-07-21T02:29:06.661Z,19.15
2017-07-21T02:30:16.636Z,19.16
2017-07-21T02:31:26.900Z,19.17
2017-07-21T02:32:36.875Z,19.17
2017-07-21T02:33:46.527Z,19.2
2017-07-21T02:34:56.177Z,19.15
2017-07-21T02:36:06.137Z,19.15
2017-07-21T02:37:16.065Z,19.22
2017-07-21T02:38:25.731Z,19.19
2017-07-21T02:39:35.695Z,19.19
2017-07-21T02:40:46.017Z,19.17
2017-07-21T02:41:56.311Z,19.19
2017-07-21T02:43:06.524Z,19.19
2017-07-21T02:44:16.790Z,19.17
2017-07-21T02:45:27.055Z,19.17
2017-07-21T02:46:37.338Z,19.16
2017-07-21T02:47:47.308Z,19.19
2017-07-21T02:48:57.824Z,19.12
2017-07-21T02:50:08.098Z,19.16
2017-07-21T02:51:18.067Z,19.22
2017-07-21T02:52:28.356Z,19.12
2017-07-21T02:53:37.700Z,19.19
2017-07-21T02:54:47.935Z,19.19
2017-07-21T02:55:57.905Z,19.15
2017-07-21T02:57:08.191Z,19.19
2017-07-21T02:58:18.164Z,19.05
2017-07-21T02:59:28.153Z,19.19
2017-07-21T03:00:37.742Z,19.16
2017-07-21T03:01:48.026Z,19.16
2017-07-21T03:02:57.993Z,19.2
2017-07-21T03:04:07.644Z,19.08
2017-07-21T03:05:17.926Z,19.11
2017-07-21T03:06:28.444Z,19.2
2017-07-21T03:07:38.403Z,19.12
2017-07-21T03:08:48.676Z,19.09
2017-07-21T03:09:58.952Z,19.08
2017-07-21T03:11:09.225Z,19.07
2017-07-21T03:12:19.428Z,19.09
2017-07-21T03:13:29.398Z,19.07
2017-07-21T03:14:39.355Z,19.08
2017-07-21T03:15:49.623Z,19.05
2017-07-21T03:16:59.316Z,19.08
2017-07-21T03:18:09.859Z,18.98
2017-07-21T03:19:20.147Z,19.05
2017-07-21T03:20:30.430Z,19.01
2017-07-21T03:21:40.714Z,19.04
2017-07-21T03:22:51.229Z,18.92
2017-07-21T03:24:01.445Z,18.94
2017-07-21T03:25:11.398Z,18.91
2017-07-21T03:26:21.360Z,18.94
2017-07-21T03:27:31.310Z,19
2017-07-21T03:28:41.283Z,18.96
2017-07-21T03:29:51.797Z,19.04
2017-07-21T03:31:02.017Z,18.96
2017-07-21T03:32:11.994Z,19
2017-07-21T03:33:21.962Z,19.07
2017-07-21T03:34:32.248Z,19.09
2017-07-21T03:35:42.774Z,19.05
2017-07-21T03:36:53.074Z,19.11
2017-07-21T03:38:03.347Z,19.09
2017-07-21T03:39:13.630Z,19.08
2017-07-21T03:40:23.908Z,19.08
2017-07-21T03:41:34.438Z,19.08
2017-07-21T03:42:44.723Z,19.04
2017-07-21T03:43:54.700Z,19.05
2017-07-21T03:45:04.970Z,19.09
2017-07-21T03:46:14.955Z,19.19
2017-07-21T03:47:25.179Z,19.05
2017-07-21T03:48:35.476Z,19.08
2017-07-21T03:49:45.422Z,19.12
2017-07-21T03:50:55.395Z,19.07
2017-07-21T03:52:05.347Z,19.08
2017-07-21T03:53:15.554Z,19.12
2017-07-21T03:54:25.835Z,19.2
2017-07-21T03:55:35.494Z,19.15
2017-07-21T03:56:45.785Z,19.17
2017-07-21T03:57:56.065Z,19.19
2017-07-21T03:59:06.286Z,19.08
2017-07-21T04:00:16.574Z,19.05
2017-07-21T04:01:26.533Z,19.2
2017-07-21T04:02:36.491Z,19.24
2017-07-21T04:03:46.792Z,19.05
2017-07-21T04:04:57.022Z,19.17
2017-07-21T04:06:06.681Z,19.09
2017-07-21T04:07:16.664Z,19.07
2017-07-21T04:08:27.168Z,19.11
2017-07-21T04:09:37.126Z,19.05
2017-07-21T04:10:47.660Z,19.04
2017-07-21T04:11:57.948Z,19.05
2017-07-21T04:13:08.226Z,19.07
2017-07-21T04:14:18.504Z,19.04
2017-07-21T04:15:28.156Z,19.07
2017-07-21T04:16:38.691Z,19.04
2017-07-21T04:17:48.663Z,19.04
2017-07-21T04:18:58.946Z,19.07
2017-07-21T04:20:09.241Z,19.05
2017-07-21T04:21:19.532Z,19.07
2017-07-21T04:22:30.291Z,19.07
2017-07-21T04:23:40.262Z,19.08
2017-07-21T04:24:50.541Z,19.07
2017-07-21T04:26:00.519Z,19.04
2017-07-21T04:27:10.793Z,19.04
2017-07-21T04:28:21.012Z,19.08
2017-07-21T04:29:31.319Z,19.07
2017-07-21T04:30:41.280Z,19.08
2017-07-21T04:31:51.616Z,19.01
2017-07-21T04:33:01.582Z,18.97
2017-07-21T04:34:12.116Z,18.98
2017-07-21T04:35:22.397Z,18.97
2017-07-21T04:36:32.705Z,18.98
2017-07-21T04:37:42.670Z,18.98
2017-07-21T04:38:52.960Z,19.04
2017-07-21T04:40:03.488Z,19
2017-07-21T04:41:13.770Z,19.01
2017-07-21T04:42:23.424Z,19
2017-07-21T04:43:33.400Z,18.98
2017-07-21T04:44:43.678Z,19
2017-07-21T04:45:54.200Z,18.98
2017-07-21T04:47:04.480Z,18.98
2017-07-21T04:48:14.439Z,19
2017-07-21T04:49:24.397Z,18.96
2017-07-21T04:50:34.364Z,18.96
2017-07-21T04:51:44.893Z,19
2017-07-21T04:52:55.180Z,19.04
2017-07-21T04:54:04.835Z,19.08
2017-07-21T04:55:14.803Z,19.08
2017-07-21T04:56:25.081Z,19.12
2017-07-21T04:57:35.304Z,19.11
2017-07-21T04:58:45.565Z,19.05
2017-07-21T04:59:55.837Z,19.04
2017-07-21T05:01:05.831Z,19.16
2017-07-21T05:02:16.123Z,19.15
2017-07-21T05:03:26.348Z,19.12
2017-07-21T05:04:36.310Z,19.19
2017-07-21T05:05:46.592Z,19.19
2017-07-21T05:06:56.859Z,19.19
2017-07-21T05:08:07.140Z,19.26
2017-07-21T05:09:17.717Z,19.24
2017-07-21T05:10:27.978Z,19.26
2017-07-21T05:11:38.274Z,19.32
2017-07-21T05:12:48.578Z,19.3
2017-07-21T05:13:58.841Z,19.27
2017-07-21T05:15:09.392Z,19.38
2017-07-21T05:16:19.678Z,19.29
2017-07-21T05:17:29.956Z,19.39
2017-07-21T05:18:40.240Z,19.37
2017-07-21T05:19:50.196Z,19.34
2017-07-21T05:21:00.407Z,19.37
2017-07-21T05:22:10.696Z,19.37
2017-07-21T05:23:20.667Z,19.38
2017-07-21T05:24:30.634Z,19.39
2017-07-21T05:25:40.607Z,19.48
2017-07-21T05:26:51.140Z,19.38
2017-07-21T05:28:01.413Z,19.41
2017-07-21T05:29:11.707Z,19.47
2017-07-21T05:30:22.023Z,19.64
2017-07-21T05:31:31.675Z,19.47
2017-07-21T05:32:42.216Z,19.55
2017-07-21T05:33:52.510Z,19.66
2017-07-21T05:35:02.838Z,19.71
2017-07-21T05:36:13.122Z,19.63
2017-07-21T05:37:23.095Z,19.66
2017-07-21T05:38:33.613Z,19.75
2017-07-21T05:39:43.904Z,19.7
2017-07-21T05:40:54.176Z,19.7
2017-07-21T05:42:04.447Z,19.79
2017-07-21T05:43:14.399Z,19.82
2017-07-21T05:44:24.921Z,19.78
2017-07-21T05:45:35.205Z,19.75
2017-07-21T05:46:45.482Z,19.81
2017-07-21T05:47:55.760Z,19.85
2017-07-21T05:49:06.045Z,19.87
2017-07-21T05:50:16.568Z,19.92
2017-07-21T05:51:26.852Z,19.84
2017-07-21T05:52:36.805Z,19.92
2017-07-21T05:53:47.123Z,19.97
2017-07-21T05:54:57.081Z,19.94
2017-07-21T05:56:07.595Z,20.12
2017-07-21T05:57:17.885Z,20.17
2017-07-21T05:58:27.844Z,20.15
2017-07-21T05:59:37.842Z,20.12
2017-07-21T06:00:48.123Z,20.18
2017-07-21T06:01:58.663Z,20.22
2017-07-21T06:03:08.945Z,20.18
2017-07-21T06:04:19.210Z,20.37
2017-07-21T06:05:28.858Z,20.32
2017-07-21T06:06:39.139Z,20.42
2017-07-21T06:07:49.664Z,20.5
2017-07-21T06:08:59.941Z,20.53
2017-07-21T06:10:10.200Z,20.52
2017-07-21T06:11:20.218Z,20.53
2017-07-21T06:12:30.483Z,20.48
2017-07-21T06:13:41.014Z,20.44
2017-07-21T06:14:51.282Z,20.42
2017-07-21T06:16:01.565Z,20.5
2017-07-21T06:17:11.850Z,20.48
2017-07-21T06:18:22.134Z,20.56
2017-07-21T06:19:32.680Z,20.64
2017-07-21T06:20:42.651Z,20.7
2017-07-21T06:21:52.629Z,20.66
2017-07-21T06:23:02.911Z,20.7
2017-07-21T06:24:13.197Z,20.64
2017-07-21T06:25:23.758Z,20.56
2017-07-21T06:26:34.039Z,20.52
2017-07-21T06:27:43.686Z,20.48
2017-07-21T06:28:53.347Z,20.59
2017-07-21T06:30:03.338Z,20.64
2017-07-21T06:31:13.858Z,20.6
2017-07-21T06:32:24.161Z,20.64
2017-07-21T06:33:34.453Z,20.67
2017-07-21T06:34:44.748Z,20.73
2017-07-21T06:35:55.034Z,20.83
2017-07-21T06:37:05.261Z,20.83
2017-07-21T06:38:15.245Z,20.89
2017-07-21T06:39:25.523Z,20.95
2017-07-21T06:40:35.810Z,20.9
2017-07-21T06:41:46.081Z,21.01
2017-07-21T06:42:55.984Z,21
2017-07-21T06:44:06.280Z,20.93
2017-07-21T06:45:16.251Z,20.89
2017-07-21T06:46:26.548Z,20.92
2017-07-21T06:47:36.516Z,21.03
2017-07-21T06:48:47.054Z,21.04
2017-07-21T06:49:57.336Z,21.1
2017-07-21T06:51:06.698Z,21.01
2017-07-21T06:52:17.024Z,21.04
2017-07-21T06:53:27.307Z,21.13
2017-07-21T06:54:37.220Z,21.17
2017-07-21T06:55:47.550Z,21.1
2017-07-21T06:56:57.858Z,21.17
2017-07-21T06:58:08.161Z,21.15
2017-07-21T06:59:18.448Z,21.14
2017-07-21T07:00:28.742Z,21.23
2017-07-21T07:01:38.727Z,21.28
2017-07-21T07:02:49.009Z,21.32
2017-07-21T07:03:59.000Z,21.25
2017-07-21T07:05:08.962Z,21.32
2017-07-21T07:06:19.510Z,21.28
2017-07-21T07:07:29.802Z,21.4
2017-07-21T07:08:40.077Z,21.47
2017-07-21T07:09:50.337Z,21.58
2017-07-21T07:11:00.650Z,21.63
2017-07-21T07:12:10.870Z,21.69
2017-07-21T07:13:21.176Z,21.62
2017-07-21T07:14:31.465Z,21.7
2017-07-21T07:15:41.735Z,21.69
2017-07-21T07:16:52.034Z,21.63
2017-07-21T07:18:02.264Z,21.62
2017-07-21T07:19:12.556Z,21.69
2017-07-21T07:20:22.235Z,21.68
2017-07-21T07:21:32.543Z,21.8
2017-07-21T07:22:42.829Z,21.7
2017-07-21T07:23:53.395Z,21.7
2017-07-21T07:25:03.693Z,21.74
2017-07-21T07:26:13.993Z,21.75
2017-07-21T07:27:24.287Z,21.63
2017-07-21T07:28:34.564Z,21.7
2017-07-21T07:29:45.097Z,21.7
2017-07-21T07:30:55.391Z,21.7
2017-07-21T07:32:05.736Z,21.65
2017-07-21T07:33:15.697Z,21.56
2017-07-21T07:34:25.660Z,21.7
2017-07-21T07:35:35.889Z,21.8
2017-07-21T07:36:45.874Z,21.8
2017-07-21T07:37:55.857Z,21.88
2017-07-21T07:39:05.838Z,21.96
2017-07-21T07:40:16.117Z,21.91
2017-07-21T07:41:26.343Z,21.85
2017-07-21T07:42:36.640Z,21.84
2017-07-21T07:43:46.955Z,21.88
2017-07-21T07:44:57.252Z,21.88
2017-07-21T07:46:07.233Z,21.92
2017-07-21T07:47:17.784Z,21.88
2017-07-21T07:48:28.086Z,21.8
2017-07-21T07:49:38.065Z,21.92
2017-07-21T07:50:47.108Z,21.81
2017-07-21T07:51:57.401Z,21.94
2017-07-21T07:53:07.934Z,21.88
2017-07-21T07:54:17.918Z,22
2017-07-21T07:55:27.909Z,21.97
2017-07-21T07:56:38.202Z,22.03
2017-07-21T07:57:48.180Z,22.06
2017-07-21T07:58:58.397Z,22.01
2017-07-21T08:00:08.677Z,22.14
2017-07-21T08:01:18.358Z,22.19
2017-07-21T08:02:28.373Z,22.18
2017-07-21T08:03:38.364Z,22.14
2017-07-21T08:04:48.918Z,22.16
2017-07-21T08:05:59.204Z,22.08
2017-07-21T08:07:09.487Z,22.1
2017-07-21T08:08:19.770Z,22.18
2017-07-21T08:09:30.044Z,22.19
2017-07-21T08:10:40.567Z,22.3
2017-07-21T08:11:50.836Z,22.44
2017-07-21T08:13:01.126Z,22.59
2017-07-21T08:14:11.409Z,22.67
2017-07-21T08:15:21.423Z,22.47
2017-07-21T08:16:31.946Z,22.51
2017-07-21T08:17:42.271Z,22.55
2017-07-21T08:18:52.270Z,22.55
2017-07-21T08:20:02.597Z,22.65
2017-07-21T08:21:11.953Z,22.67
2017-07-21T08:22:22.221Z,22.62
2017-07-21T08:23:32.197Z,22.63
2017-07-21T08:24:42.478Z,22.73
2017-07-21T08:25:52.462Z,22.65
2017-07-21T08:27:02.135Z,22.7
2017-07-21T08:28:12.657Z,22.68
2017-07-21T08:29:22.931Z,22.61
2017-07-21T08:30:33.240Z,22.71
2017-07-21T08:31:43.569Z,22.7
2017-07-21T08:32:53.846Z,22.81
2017-07-21T08:34:04.397Z,22.92
2017-07-21T08:35:14.675Z,22.83
2017-07-21T08:36:24.680Z,22.99
2017-07-21T08:37:35.021Z,22.89
2017-07-21T08:38:45.328Z,22.76
2017-07-21T08:39:55.559Z,22.74
2017-07-21T08:41:05.841Z,22.86
2017-07-21T08:42:16.160Z,23.02
2017-07-21T08:43:26.466Z,23.1
2017-07-21T08:44:36.767Z,23.26
2017-07-21T08:45:47.310Z,23.49
2017-07-21T08:46:57.603Z,23.62
2017-07-21T08:48:07.964Z,23.71
2017-07-21T08:49:18.261Z,23.74
2017-07-21T08:50:28.252Z,23.67
2017-07-21T08:51:38.793Z,23.74
2017-07-21T08:52:48.764Z,23.84
2017-07-21T08:53:58.753Z,23.71
2017-07-21T08:55:09.057Z,23.82
2017-07-21T08:56:19.352Z,24.11
2017-07-21T08:57:29.589Z,24.09
2017-07-21T08:58:39.576Z,23.89
2017-07-21T08:59:49.572Z,23.74
2017-07-21T09:00:59.878Z,23.56
2017-07-21T09:02:10.227Z,23.73
2017-07-21T09:03:20.452Z,23.86
2017-07-21T09:04:30.989Z,23.91
2017-07-21T09:05:41.000Z,24.24
2017-07-21T09:06:50.663Z,24.24
2017-07-21T09:08:00.658Z,24.16
2017-07-21T09:09:11.283Z,24.04
2017-07-21T09:10:21.303Z,24.14
2017-07-21T09:11:31.295Z,24.14
2017-07-21T09:12:40.968Z,24.28
2017-07-21T09:13:50.952Z,24.31
2017-07-21T09:15:01.557Z,24.34
2017-07-21T09:16:11.233Z,24.4
2017-07-21T09:17:20.910Z,24.48
2017-07-21T09:18:31.222Z,24.46
2017-07-21T09:19:41.514Z,24.53
2017-07-21T09:20:52.048Z,24.34
2017-07-21T09:22:02.341Z,24.24
2017-07-21T09:23:12.628Z,24.5
2017-07-21T09:24:22.301Z,24.55
2017-07-21T09:25:32.584Z,24.69
2017-07-21T09:26:42.819Z,24.51
2017-07-21T09:27:52.804Z,24.37
2017-07-21T09:29:03.152Z,24.07
2017-07-21T09:30:13.435Z,23.96
2017-07-21T09:31:23.419Z,24.01
2017-07-21T09:32:33.676Z,24.07
2017-07-21T09:33:43.656Z,24.31
2017-07-21T09:34:53.943Z,24.31
2017-07-21T09:36:04.250Z,24.44
2017-07-21T09:37:14.543Z,24.53
2017-07-21T09:38:24.778Z,24.74
2017-07-21T09:39:34.765Z,24.85
2017-07-21T09:40:45.047Z,25.33
2017-07-21T09:41:55.342Z,25.77
2017-07-21T09:43:05.648Z,26.26
2017-07-21T09:44:16.190Z,26.39
2017-07-21T09:45:26.168Z,26.27
2017-07-21T09:46:36.467Z,26.01
2017-07-21T09:47:46.766Z,25.68
2017-07-21T09:48:57.065Z,25.7
2017-07-21T09:50:07.613Z,25.76
2017-07-21T09:51:17.934Z,25.88
2017-07-21T09:52:28.238Z,25.98
2017-07-21T09:53:38.524Z,26.27
2017-07-21T09:54:48.829Z,26.52
2017-07-21T09:55:59.075Z,26.53
2017-07-21T09:57:09.370Z,26.34
2017-07-21T09:58:19.666Z,26.3
2017-07-21T09:59:29.322Z,26.34
2017-07-21T10:00:39.610Z,26.7
2017-07-21T10:01:50.171Z,26.52
2017-07-21T10:03:00.491Z,26.64
2017-07-21T10:04:10.789Z,26.6
2017-07-21T10:05:20.791Z,26.56
2017-07-21T10:06:30.782Z,26.82
2017-07-21T10:07:41.342Z,26.92
2017-07-21T10:08:51.316Z,27.13
2017-07-21T10:10:01.303Z,27.16
2017-07-21T10:11:11.291Z,27.16
2017-07-21T10:12:21.602Z,26.74
2017-07-21T10:13:32.165Z,26.64
2017-07-21T10:14:42.392Z,26.49
2017-07-21T10:15:52.690Z,26.36
2017-07-21T10:17:03.018Z,26.36
2017-07-21T10:18:13.313Z,26.37
2017-07-21T10:19:23.566Z,26.52
2017-07-21T10:20:33.848Z,26.85
2017-07-21T10:21:43.842Z,27.29
2017-07-21T10:22:54.142Z,27.58
2017-07-21T10:24:04.441Z,27.81
2017-07-21T10:25:14.669Z,28.16
2017-07-21T10:26:24.972Z,28.37
2017-07-21T10:27:35.279Z,28.22
2017-07-21T10:28:45.573Z,27.94
2017-07-21T10:29:55.866Z,27.68
2017-07-21T10:31:06.458Z,27.71
2017-07-21T10:32:16.473Z,27.72
2017-07-21T10:33:26.767Z,27.33
2017-07-21T10:34:37.053Z,26.88
2017-07-21T10:35:47.342Z,26.79
2017-07-21T10:36:57.569Z,27.04
2017-07-21T10:38:07.852Z,27.45
2017-07-21T10:39:18.159Z,27.81
2017-07-21T10:40:28.471Z,27.71
2017-07-21T10:41:38.809Z,27.55
2017-07-21T10:42:49.360Z,27.57
2017-07-21T10:43:59.340Z,27.76
2017-07-21T10:45:09.663Z,27.98
2017-07-21T10:46:19.649Z,28.06
2017-07-21T10:47:29.632Z,28.49
2017-07-21T10:48:39.881Z,28.93
2017-07-21T10:49:49.561Z,29.39
2017-07-21T10:50:59.572Z,29.52
2017-07-21T10:52:09.572Z,29.53
2017-07-21T10:53:19.863Z,29.1
2017-07-21T10:54:30.424Z,29.21
2017-07-21T10:55:40.740Z,29.67
2017-07-21T10:56:51.039Z,29.98
2017-07-21T10:58:01.330Z,29.15
2017-07-21T10:59:11.325Z,28.62
2017-07-21T11:00:21.880Z,28.25
2017-07-21T11:01:31.882Z,28.06
2017-07-21T11:02:42.179Z,27.73
2017-07-21T11:03:52.152Z,27.45
2017-07-21T11:05:01.849Z,27.48
2017-07-21T11:06:12.100Z,27.18
2017-07-21T11:07:22.091Z,27.16
2017-07-21T11:08:32.081Z,26.96
2017-07-21T11:09:42.074Z,26.63
2017-07-21T11:10:52.078Z,26.68
2017-07-21T11:12:02.631Z,26.74
2017-07-21T11:13:13.146Z,26.88
2017-07-21T11:14:22.830Z,26.88
2017-07-21T11:15:32.828Z,27.01
2017-07-21T11:16:42.846Z,27.41
2017-07-21T11:17:53.419Z,27.47
2017-07-21T11:19:03.390Z,27.43
2017-07-21T11:20:13.682Z,27.37
2017-07-21T11:21:23.978Z,27.03
2017-07-21T11:22:34.271Z,27.1
2017-07-21T11:23:44.504Z,27.61
2017-07-21T11:24:54.799Z,28.04
2017-07-21T11:26:05.101Z,28.18
2017-07-21T11:27:15.391Z,28.19
2017-07-21T11:28:25.374Z,28.37
2017-07-21T11:29:35.611Z,28.49
2017-07-21T11:30:45.914Z,28.78
2017-07-21T11:31:56.210Z,28.97
2017-07-21T11:33:05.882Z,29.28
2017-07-21T11:34:16.202Z,29.25
2017-07-21T11:35:26.452Z,28.71
2017-07-21T11:36:36.426Z,28.2
2017-07-21T11:37:46.087Z,27.72
2017-07-21T11:38:55.772Z,27.75
2017-07-21T11:40:05.756Z,27.6
2017-07-21T11:41:16.002Z,27.44
2017-07-21T11:42:26.284Z,27.45
2017-07-21T11:43:36.590Z,27.72
2017-07-21T11:44:46.898Z,28.13
2017-07-21T11:45:56.881Z,28.33
2017-07-21T11:47:07.411Z,28.43
2017-07-21T11:48:17.415Z,28.65
2017-07-21T11:49:27.078Z,28.75
2017-07-21T11:50:37.387Z,29.13
2017-07-21T11:51:47.053Z,29.27
2017-07-21T11:52:56.968Z,29.07
2017-07-21T11:54:07.270Z,28.96
2017-07-21T11:55:17.247Z,28.92
2017-07-21T11:56:27.574Z,28.93
2017-07-21T11:57:37.875Z,29.24
2017-07-21T11:58:48.788Z,29.34
2017-07-21T11:59:58.759Z,29.22
2017-07-21T12:01:09.038Z,29.2
2017-07-21T12:02:19.034Z,29.13
2017-07-21T12:03:29.014Z,29.39
2017-07-21T12:04:39.567Z,29.42
2017-07-21T12:05:49.852Z,29.47
2017-07-21T12:07:00.159Z,29.55
2017-07-21T12:08:10.494Z,29.34
2017-07-21T12:09:20.505Z,29.09
2017-07-21T12:10:31.047Z,29.25
2017-07-21T12:11:41.342Z,29.43
2017-07-21T12:12:51.347Z,29.68
2017-07-21T12:14:01.324Z,30.11
2017-07-21T12:15:11.318Z,30.38
2017-07-21T12:16:21.559Z,30.51
2017-07-21T12:17:31.871Z,30.44
2017-07-21T12:18:42.173Z,30.52
2017-07-21T12:19:52.176Z,30.26
2017-07-21T12:21:02.477Z,30.48
2017-07-21T12:22:13.099Z,30.49
2017-07-21T12:23:23.418Z,30.17
2017-07-21T12:24:33.118Z,29.9
2017-07-21T12:25:43.090Z,29.83
2017-07-21T12:26:53.377Z,29.86
2017-07-21T12:28:03.938Z,29.87
2017-07-21T12:29:14.253Z,30.35
2017-07-21T12:30:24.543Z,31
2017-07-21T12:31:34.855Z,31.45
2017-07-21T12:32:44.842Z,31.89
2017-07-21T12:33:55.095Z,32.53
2017-07-21T12:35:05.398Z,32.88
2017-07-21T12:36:15.697Z,33.28
2017-07-21T12:37:26.019Z,33.76
2017-07-21T12:38:36.327Z,34.26
2017-07-21T12:39:46.562Z,34.59
2017-07-21T12:40:56.238Z,34.75
2017-07-21T12:42:06.537Z,34.94
2017-07-21T12:43:16.538Z,35.2
2017-07-21T12:44:26.859Z,35.1
2017-07-21T12:45:37.460Z,33.7
2017-07-21T12:46:47.753Z,32.81
2017-07-21T12:47:57.740Z,32.46
2017-07-21T12:49:08.043Z,32.44
2017-07-21T12:50:18.020Z,32.46
2017-07-21T12:51:27.954Z,32.27
2017-07-21T12:52:38.259Z,32.41
2017-07-21T12:53:48.552Z,32.42
2017-07-21T12:54:58.539Z,32.57
2017-07-21T12:56:08.845Z,32.72
2017-07-21T12:57:19.084Z,33.05
2017-07-21T12:58:29.418Z,32.72
2017-07-21T12:59:39.480Z,31.63
2017-07-21T13:00:49.789Z,30.85
2017-07-21T13:01:59.787Z,30.16
2017-07-21T13:03:10.041Z,30.14
2017-07-21T13:04:20.377Z,30.48
2017-07-21T13:05:30.693Z,30.99
2017-07-21T13:06:40.981Z,31.44
2017-07-21T13:07:51.294Z,31.35
2017-07-21T13:09:01.872Z,31.89
2017-07-21T13:10:11.863Z,31.81
2017-07-21T13:11:22.180Z,31.78
2017-07-21T13:12:32.485Z,31.77
2017-07-21T13:13:42.829Z,31.26
2017-07-21T13:14:53.401Z,31.02
2017-07-21T13:16:03.400Z,30.43
2017-07-21T13:17:13.693Z,30.11
2017-07-21T13:18:23.992Z,30.27
2017-07-21T13:19:33.974Z,30.65
2017-07-21T13:20:44.533Z,30.96
2017-07-21T13:21:54.544Z,31.17
2017-07-21T13:23:04.524Z,31.35
2017-07-21T13:24:14.832Z,31.32
2017-07-21T13:25:25.116Z,31.54
2017-07-21T13:26:35.684Z,32.15
2017-07-21T13:27:45.972Z,32.67
2017-07-21T13:28:55.955Z,32.81
2017-07-21T13:30:06.245Z,32.72
2017-07-21T13:31:16.215Z,32.93
2017-07-21T13:32:26.889Z,33.22
2017-07-21T13:33:36.874Z,33.28
2017-07-21T13:34:47.174Z,33
2017-07-21T13:35:57.167Z,33.38
2017-07-21T13:37:07.495Z,33.55
2017-07-21T13:38:18.102Z,34.09
2017-07-21T13:39:28.109Z,34.51
2017-07-21T13:40:38.114Z,34.81
2017-07-21T13:41:48.416Z,34.19
2017-07-21T13:42:58.380Z,34.21
2017-07-21T13:44:08.917Z,34.51
2017-07-21T13:45:18.876Z,34.38
2017-07-21T13:46:28.910Z,34.28
2017-07-21T13:47:39.210Z,34.46
2017-07-21T13:48:49.221Z,34.75
2017-07-21T13:49:59.792Z,35.01
2017-07-21T13:51:09.474Z,35.66
2017-07-21T13:52:19.773Z,36.09
2017-07-21T13:53:30.100Z,36.32
2017-07-21T13:54:40.397Z,36.5
2017-07-21T13:55:50.949Z,36.45
2017-07-21T13:57:01.238Z,36.73
2017-07-21T13:58:11.528Z,36.91
2017-07-21T13:59:21.835Z,36.84
2017-07-21T14:00:32.242Z,36.97
2017-07-21T14:01:42.849Z,36.92
2017-07-21T14:02:53.162Z,37.1
2017-07-21T14:04:03.482Z,37.48
2017-07-21T14:05:13.784Z,37.94
2017-07-21T14:06:24.108Z,38.17
2017-07-21T14:07:34.402Z,38.34
2017-07-21T14:08:44.400Z,38.35
2017-07-21T14:09:54.726Z,38.19
2017-07-21T14:11:04.724Z,38.14
2017-07-21T14:12:15.035Z,38.13
2017-07-21T14:13:25.605Z,37.88
2017-07-21T14:14:35.920Z,37.38
2017-07-21T14:15:46.220Z,37.11
2017-07-21T14:16:56.203Z,36.54
2017-07-21T14:18:06.514Z,36.11
2017-07-21T14:19:16.745Z,35.91
2017-07-21T14:20:26.749Z,35.98
2017-07-21T14:21:37.058Z,35.84
2017-07-21T14:22:47.570Z,35.25
2017-07-21T14:23:57.866Z,34.79
2017-07-21T14:25:08.435Z,34.51
2017-07-21T14:26:18.727Z,34
2017-07-21T14:27:28.728Z,33.48
2017-07-21T14:28:39.018Z,33.31
2017-07-21T14:29:49.302Z,33.29
2017-07-21T14:30:59.908Z,33.08
2017-07-21T14:32:09.889Z,32.97
2017-07-21T14:33:19.890Z,33.36
2017-07-21T14:34:29.553Z,33.58
2017-07-21T14:35:39.840Z,33.95
2017-07-21T14:36:50.109Z,34.46
2017-07-21T14:38:00.070Z,34.48
2017-07-21T14:39:10.153Z,33.67
2017-07-21T14:40:20.451Z,33.09
2017-07-21T14:41:30.754Z,32.73
2017-07-21T14:42:41.312Z,32.05
2017-07-21T14:43:51.602Z,31.48
2017-07-21T14:45:01.885Z,31.41
2017-07-21T14:46:11.881Z,31.72
2017-07-21T14:47:22.163Z,31.95
2017-07-21T14:48:32.097Z,32.19
2017-07-21T14:49:42.087Z,32.41
2017-07-21T14:50:52.381Z,32.46
2017-07-21T14:52:02.683Z,32.39
2017-07-21T14:53:12.975Z,32.27
2017-07-21T14:54:23.265Z,32.01
2017-07-21T14:55:33.553Z,31.77
2017-07-21T14:56:43.839Z,31.77
2017-07-21T14:57:54.142Z,31.98
2017-07-21T14:59:04.124Z,31.87
2017-07-21T15:00:14.356Z,31.79
2017-07-21T15:01:24.645Z,31.73
2017-07-21T15:02:34.335Z,31.47
2017-07-21T15:03:44.852Z,31.51
2017-07-21T15:04:55.142Z,31.66
2017-07-21T15:06:05.369Z,32.08
2017-07-21T15:07:15.673Z,32.39
2017-07-21T15:08:25.971Z,32.72